sensor_id;sensor_type;location;lat;lon;timestamp;temperature;humidity
14733;DHT22;7457;50.960;6.830;2023-03-21T00:00:11;9.30;79.60
14733;DHT22;7457;50.960;6.830;2023-03-21T00:02:37;9.40;79.50
14733;DHT22;7457;50.960;6.830;2023-03-21T00:05:03;9.40;79.50
14733;DHT22;7457;50.960;6.830;2023-03-21T00:07:29;9.40;79.50
14733;DHT22;7457;50.960;6.830;2023-03-21T00:09:54;9.40;79.50
14733;DHT22;7457;50.960;6.830;2023-03-21T00:12:20;9.40;79.60
14733;DHT22;7457;50.960;6.830;2023-03-21T00:14:45;9.40;79.60
14733;DHT22;7457;50.960;6.830;2023-03-21T00:17:11;9.40;79.70
14733;DHT22;7457;50.960;6.830;2023-03-21T00:19:37;9.40;79.70
14733;DHT22;7457;50.960;6.830;2023-03-21T00:22:05;9.30;79.80
14733;DHT22;7457;50.960;6.830;2023-03-21T00:24:31;9.30;79.90
14733;DHT22;7457;50.960;6.830;2023-03-21T00:26:57;9.30;79.90
14733;DHT22;7457;50.960;6.830;2023-03-21T00:29:22;9.30;79.90
14733;DHT22;7457;50.960;6.830;2023-03-21T00:31:48;9.30;79.90
14733;DHT22;7457;50.960;6.830;2023-03-21T00:34:14;9.30;79.90
14733;DHT22;7457;50.960;6.830;2023-03-21T00:36:39;9.30;80.00
14733;DHT22;7457;50.960;6.830;2023-03-21T00:39:05;9.30;80.00
14733;DHT22;7457;50.960;6.830;2023-03-21T00:41:31;9.30;80.00
14733;DHT22;7457;50.960;6.830;2023-03-21T00:43:57;9.30;80.00
14733;DHT22;7457;50.960;6.830;2023-03-21T00:46:22;9.30;80.00
14733;DHT22;7457;50.960;6.830;2023-03-21T00:48:48;9.30;80.10
14733;DHT22;7457;50.960;6.830;2023-03-21T00:51:20;9.30;80.10
14733;DHT22;7457;50.960;6.830;2023-03-21T00:53:54;9.30;80.30
14733;DHT22;7457;50.960;6.830;2023-03-21T00:56:20;9.30;80.30
14733;DHT22;7457;50.960;6.830;2023-03-21T00:58:46;9.30;80.40
14733;DHT22;7457;50.960;6.830;2023-03-21T01:01:12;9.30;80.60
14733;DHT22;7457;50.960;6.830;2023-03-21T01:03:37;9.30;80.60
14733;DHT22;7457;50.960;6.830;2023-03-21T01:06:10;9.30;80.70
14733;DHT22;7457;50.960;6.830;2023-03-21T01:08:42;9.30;80.70
14733;DHT22;7457;50.960;6.830;2023-03-21T01:11:11;9.30;80.70
14733;DHT22;7457;50.960;6.830;2023-03-21T01:13:37;9.30;80.70
14733;DHT22;7457;50.960;6.830;2023-03-21T01:16:03;9.30;80.60
14733;DHT22;7457;50.960;6.830;2023-03-21T01:18:30;9.30;80.60
14733;DHT22;7457;50.960;6.830;2023-03-21T01:20:58;9.30;80.60
14733;DHT22;7457;50.960;6.830;2023-03-21T01:23:25;9.30;80.60
14733;DHT22;7457;50.960;6.830;2023-03-21T01:25:52;9.30;80.60
14733;DHT22;7457;50.960;6.830;2023-03-21T01:28:19;9.30;80.70
14733;DHT22;7457;50.960;6.830;2023-03-21T01:30:46;9.30;80.70
14733;DHT22;7457;50.960;6.830;2023-03-21T01:33:13;9.30;80.80
14733;DHT22;7457;50.960;6.830;2023-03-21T01:35:39;9.20;80.80
14733;DHT22;7457;50.960;6.830;2023-03-21T01:38:05;9.20;80.80
14733;DHT22;7457;50.960;6.830;2023-03-21T01:40:31;9.30;80.90
14733;DHT22;7457;50.960;6.830;2023-03-21T01:42:56;9.20;80.90
14733;DHT22;7457;50.960;6.830;2023-03-21T01:48:26;9.30;81.10
14733;DHT22;7457;50.960;6.830;2023-03-21T01:50:54;9.20;81.10
14733;DHT22;7457;50.960;6.830;2023-03-21T01:53:23;9.20;81.10
14733;DHT22;7457;50.960;6.830;2023-03-21T01:55:58;9.20;81.20
14733;DHT22;7457;50.960;6.830;2023-03-21T01:58:25;9.20;81.20
14733;DHT22;7457;50.960;6.830;2023-03-21T02:00:52;9.20;81.30
14733;DHT22;7457;50.960;6.830;2023-03-21T02:03:20;9.20;81.30
14733;DHT22;7457;50.960;6.830;2023-03-21T02:06:45;9.30;81.30
14733;DHT22;7457;50.960;6.830;2023-03-21T02:09:13;9.20;81.30
14733;DHT22;7457;50.960;6.830;2023-03-21T02:11:40;9.20;81.40
14733;DHT22;7457;50.960;6.830;2023-03-21T02:14:13;9.20;81.40
14733;DHT22;7457;50.960;6.830;2023-03-21T02:16:51;9.30;81.40
14733;DHT22;7457;50.960;6.830;2023-03-21T02:27:14;9.30;81.30
14733;DHT22;7457;50.960;6.830;2023-03-21T02:36:44;9.20;81.50
14733;DHT22;7457;50.960;6.830;2023-03-21T02:41:51;9.20;81.80
14733;DHT22;7457;50.960;6.830;2023-03-21T02:46:49;9.10;81.90
14733;DHT22;7457;50.960;6.830;2023-03-21T02:49:25;9.10;82.00
14733;DHT22;7457;50.960;6.830;2023-03-21T02:51:56;9.10;82.20
14733;DHT22;7457;50.960;6.830;2023-03-21T02:54:23;9.10;82.20
14733;DHT22;7457;50.960;6.830;2023-03-21T02:56:51;9.20;82.30
14733;DHT22;7457;50.960;6.830;2023-03-21T02:59:20;9.20;82.30
14733;DHT22;7457;50.960;6.830;2023-03-21T03:01:46;9.20;82.30
14733;DHT22;7457;50.960;6.830;2023-03-21T03:04:25;9.20;82.20
14733;DHT22;7457;50.960;6.830;2023-03-21T03:14:56;9.10;82.50
14733;DHT22;7457;50.960;6.830;2023-03-21T03:20:24;9.10;82.50
14733;DHT22;7457;50.960;6.830;2023-03-21T03:25:46;9.00;82.50
14733;DHT22;7457;50.960;6.830;2023-03-21T03:28:26;9.00;82.50
14733;DHT22;7457;50.960;6.830;2023-03-21T03:30:55;9.00;82.60
14733;DHT22;7457;50.960;6.830;2023-03-21T03:33:22;8.90;82.60
14733;DHT22;7457;50.960;6.830;2023-03-21T03:35:49;8.90;82.80
14733;DHT22;7457;50.960;6.830;2023-03-21T03:38:16;8.80;83.00
14733;DHT22;7457;50.960;6.830;2023-03-21T03:40:48;8.80;83.10
14733;DHT22;7457;50.960;6.830;2023-03-21T03:43:22;8.80;83.20
14733;DHT22;7457;50.960;6.830;2023-03-21T03:45:59;8.80;83.30
14733;DHT22;7457;50.960;6.830;2023-03-21T03:48:34;8.80;83.40
14733;DHT22;7457;50.960;6.830;2023-03-21T03:51:04;8.80;83.50
14733;DHT22;7457;50.960;6.830;2023-03-21T03:55:58;8.80;83.60
14733;DHT22;7457;50.960;6.830;2023-03-21T03:58:25;8.80;83.70
14733;DHT22;7457;50.960;6.830;2023-03-21T04:00:53;8.80;83.70
14733;DHT22;7457;50.960;6.830;2023-03-21T04:03:19;8.90;83.70
14733;DHT22;7457;50.960;6.830;2023-03-21T04:05:45;8.90;83.70
14733;DHT22;7457;50.960;6.830;2023-03-21T04:08:12;8.90;83.70
14733;DHT22;7457;50.960;6.830;2023-03-21T04:10:40;8.90;83.70
14733;DHT22;7457;50.960;6.830;2023-03-21T04:13:06;8.90;83.60
14733;DHT22;7457;50.960;6.830;2023-03-21T04:15:31;8.90;83.60
14733;DHT22;7457;50.960;6.830;2023-03-21T04:17:57;9.00;83.60
14733;DHT22;7457;50.960;6.830;2023-03-21T04:20:23;9.00;83.60
14733;DHT22;7457;50.960;6.830;2023-03-21T04:22:49;9.00;83.50
14733;DHT22;7457;50.960;6.830;2023-03-21T04:25:15;9.00;83.60
14733;DHT22;7457;50.960;6.830;2023-03-21T04:27:41;9.00;83.60
14733;DHT22;7457;50.960;6.830;2023-03-21T04:30:08;9.00;83.70
14733;DHT22;7457;50.960;6.830;2023-03-21T04:32:37;9.00;83.80
14733;DHT22;7457;50.960;6.830;2023-03-21T04:35:05;9.00;83.80
14733;DHT22;7457;50.960;6.830;2023-03-21T04:37:33;8.90;83.80
14733;DHT22;7457;50.960;6.830;2023-03-21T04:39:59;9.00;83.90
14733;DHT22;7457;50.960;6.830;2023-03-21T04:42:25;9.00;83.90
14733;DHT22;7457;50.960;6.830;2023-03-21T04:44:51;9.00;84.00
14733;DHT22;7457;50.960;6.830;2023-03-21T04:47:16;9.00;84.00
14733;DHT22;7457;50.960;6.830;2023-03-21T04:49:45;9.00;84.10
14733;DHT22;7457;50.960;6.830;2023-03-21T04:52:14;9.00;84.10
14733;DHT22;7457;50.960;6.830;2023-03-21T04:54:40;9.00;84.10
14733;DHT22;7457;50.960;6.830;2023-03-21T04:57:06;9.00;84.10
14733;DHT22;7457;50.960;6.830;2023-03-21T04:59:33;9.00;84.30
14733;DHT22;7457;50.960;6.830;2023-03-21T05:01:59;8.90;84.40
14733;DHT22;7457;50.960;6.830;2023-03-21T05:04:25;8.90;84.60
14733;DHT22;7457;50.960;6.830;2023-03-21T05:06:52;9.00;84.60
14733;DHT22;7457;50.960;6.830;2023-03-21T05:09:18;9.00;84.60
14733;DHT22;7457;50.960;6.830;2023-03-21T05:11:47;9.00;84.70
14733;DHT22;7457;50.960;6.830;2023-03-21T05:14:20;9.00;84.70
14733;DHT22;7457;50.960;6.830;2023-03-21T05:16:46;9.00;84.70
14733;DHT22;7457;50.960;6.830;2023-03-21T05:19:22;9.00;84.70
14733;DHT22;7457;50.960;6.830;2023-03-21T05:21:49;9.00;84.80
14733;DHT22;7457;50.960;6.830;2023-03-21T05:24:20;9.00;84.70
14733;DHT22;7457;50.960;6.830;2023-03-21T05:26:47;9.10;84.70
14733;DHT22;7457;50.960;6.830;2023-03-21T05:29:17;9.10;84.50
14733;DHT22;7457;50.960;6.830;2023-03-21T05:31:44;9.10;84.40
14733;DHT22;7457;50.960;6.830;2023-03-21T05:34:11;9.20;84.30
14733;DHT22;7457;50.960;6.830;2023-03-21T05:36:37;9.20;84.30
14733;DHT22;7457;50.960;6.830;2023-03-21T05:39:04;9.20;84.20
14733;DHT22;7457;50.960;6.830;2023-03-21T05:41:29;9.30;84.20
14733;DHT22;7457;50.960;6.830;2023-03-21T05:43:55;9.30;84.20
14733;DHT22;7457;50.960;6.830;2023-03-21T05:46:21;9.30;84.20
14733;DHT22;7457;50.960;6.830;2023-03-21T05:48:46;9.30;84.20
14733;DHT22;7457;50.960;6.830;2023-03-21T05:51:12;9.30;84.30
14733;DHT22;7457;50.960;6.830;2023-03-21T05:53:38;9.30;84.40
14733;DHT22;7457;50.960;6.830;2023-03-21T05:56:03;9.30;84.60
14733;DHT22;7457;50.960;6.830;2023-03-21T05:58:29;9.30;84.70
14733;DHT22;7457;50.960;6.830;2023-03-21T06:00:55;9.30;84.80
14733;DHT22;7457;50.960;6.830;2023-03-21T06:03:20;9.40;84.80
14733;DHT22;7457;50.960;6.830;2023-03-21T06:05:46;9.40;84.70
14733;DHT22;7457;50.960;6.830;2023-03-21T06:08:12;9.40;84.60
14733;DHT22;7457;50.960;6.830;2023-03-21T06:10:37;9.50;84.60
14733;DHT22;7457;50.960;6.830;2023-03-21T06:13:03;9.50;84.60
14733;DHT22;7457;50.960;6.830;2023-03-21T06:15:29;9.50;84.60
14733;DHT22;7457;50.960;6.830;2023-03-21T06:17:55;9.50;84.60
14733;DHT22;7457;50.960;6.830;2023-03-21T06:20:20;9.50;84.70
14733;DHT22;7457;50.960;6.830;2023-03-21T06:22:46;9.60;84.80
14733;DHT22;7457;50.960;6.830;2023-03-21T06:25:12;9.60;84.70
14733;DHT22;7457;50.960;6.830;2023-03-21T06:27:38;9.60;84.80
14733;DHT22;7457;50.960;6.830;2023-03-21T06:30:04;9.60;84.60
14733;DHT22;7457;50.960;6.830;2023-03-21T06:32:30;9.70;84.40
14733;DHT22;7457;50.960;6.830;2023-03-21T06:34:56;9.70;84.40
14733;DHT22;7457;50.960;6.830;2023-03-21T06:37:22;9.70;84.30
14733;DHT22;7457;50.960;6.830;2023-03-21T06:39:48;9.70;84.30
14733;DHT22;7457;50.960;6.830;2023-03-21T06:42:14;9.80;84.30
14733;DHT22;7457;50.960;6.830;2023-03-21T06:44:40;9.70;84.30
14733;DHT22;7457;50.960;6.830;2023-03-21T06:47:05;9.70;84.60
14733;DHT22;7457;50.960;6.830;2023-03-21T06:49:32;9.70;84.80
14733;DHT22;7457;50.960;6.830;2023-03-21T06:51:58;9.70;85.20
14733;DHT22;7457;50.960;6.830;2023-03-21T06:54:24;9.70;85.30
14733;DHT22;7457;50.960;6.830;2023-03-21T06:56:49;9.60;85.50
14733;DHT22;7457;50.960;6.830;2023-03-21T06:59:15;9.60;86.10
14733;DHT22;7457;50.960;6.830;2023-03-21T07:01:41;9.60;86.50
14733;DHT22;7457;50.960;6.830;2023-03-21T07:04:07;9.60;87.10
14733;DHT22;7457;50.960;6.830;2023-03-21T07:06:33;9.60;87.40
14733;DHT22;7457;50.960;6.830;2023-03-21T07:08:59;9.50;87.70
14733;DHT22;7457;50.960;6.830;2023-03-21T07:11:25;9.50;88.40
14733;DHT22;7457;50.960;6.830;2023-03-21T07:13:51;9.40;89.10
14733;DHT22;7457;50.960;6.830;2023-03-21T07:16:18;9.40;89.50
14733;DHT22;7457;50.960;6.830;2023-03-21T07:18:44;9.40;90.40
14733;DHT22;7457;50.960;6.830;2023-03-21T07:21:10;9.40;90.70
14733;DHT22;7457;50.960;6.830;2023-03-21T07:23:35;9.30;91.40
14733;DHT22;7457;50.960;6.830;2023-03-21T07:26:03;9.30;91.70
14733;DHT22;7457;50.960;6.830;2023-03-21T07:28:28;9.30;92.20
14733;DHT22;7457;50.960;6.830;2023-03-21T07:30:58;9.30;92.50
14733;DHT22;7457;50.960;6.830;2023-03-21T07:33:25;9.30;92.80
14733;DHT22;7457;50.960;6.830;2023-03-21T07:35:52;9.30;93.10
14733;DHT22;7457;50.960;6.830;2023-03-21T07:38:18;9.30;93.30
14733;DHT22;7457;50.960;6.830;2023-03-21T07:40:46;9.30;93.60
14733;DHT22;7457;50.960;6.830;2023-03-21T07:43:12;9.30;93.70
14733;DHT22;7457;50.960;6.830;2023-03-21T07:45:38;9.30;93.80
14733;DHT22;7457;50.960;6.830;2023-03-21T07:48:04;9.30;94.00
14733;DHT22;7457;50.960;6.830;2023-03-21T07:50:30;9.30;94.20
14733;DHT22;7457;50.960;6.830;2023-03-21T07:52:56;9.30;94.40
14733;DHT22;7457;50.960;6.830;2023-03-21T07:55:21;9.20;94.70
14733;DHT22;7457;50.960;6.830;2023-03-21T07:57:50;9.20;94.90
14733;DHT22;7457;50.960;6.830;2023-03-21T08:00:20;9.20;95.00
14733;DHT22;7457;50.960;6.830;2023-03-21T08:02:52;9.20;95.00
14733;DHT22;7457;50.960;6.830;2023-03-21T08:05:23;9.20;95.20
14733;DHT22;7457;50.960;6.830;2023-03-21T08:07:50;9.20;95.30
14733;DHT22;7457;50.960;6.830;2023-03-21T08:10:16;9.20;95.70
14733;DHT22;7457;50.960;6.830;2023-03-21T08:12:43;9.20;96.00
14733;DHT22;7457;50.960;6.830;2023-03-21T08:15:09;9.20;96.50
14733;DHT22;7457;50.960;6.830;2023-03-21T08:17:35;9.30;96.90
14733;DHT22;7457;50.960;6.830;2023-03-21T08:20:03;9.30;97.20
14733;DHT22;7457;50.960;6.830;2023-03-21T08:22:32;9.20;97.30
14733;DHT22;7457;50.960;6.830;2023-03-21T08:24:58;9.20;97.50
14733;DHT22;7457;50.960;6.830;2023-03-21T08:27:23;9.30;97.80
14733;DHT22;7457;50.960;6.830;2023-03-21T08:29:50;9.30;97.90
14733;DHT22;7457;50.960;6.830;2023-03-21T08:32:17;9.30;98.10
14733;DHT22;7457;50.960;6.830;2023-03-21T08:34:42;9.30;98.40
14733;DHT22;7457;50.960;6.830;2023-03-21T08:37:08;9.30;98.50
14733;DHT22;7457;50.960;6.830;2023-03-21T08:39:33;9.30;98.70
14733;DHT22;7457;50.960;6.830;2023-03-21T08:41:59;9.30;99.10
14733;DHT22;7457;50.960;6.830;2023-03-21T08:44:25;9.30;99.10
14733;DHT22;7457;50.960;6.830;2023-03-21T08:46:51;9.30;99.10
14733;DHT22;7457;50.960;6.830;2023-03-21T08:49:16;9.30;99.00
14733;DHT22;7457;50.960;6.830;2023-03-21T08:51:42;9.30;99.00
14733;DHT22;7457;50.960;6.830;2023-03-21T08:54:20;9.30;99.10
14733;DHT22;7457;50.960;6.830;2023-03-21T08:56:46;9.20;99.30
14733;DHT22;7457;50.960;6.830;2023-03-21T08:59:11;9.20;99.50
14733;DHT22;7457;50.960;6.830;2023-03-21T09:01:37;9.20;99.80
14733;DHT22;7457;50.960;6.830;2023-03-21T09:04:03;9.20;99.80
14733;DHT22;7457;50.960;6.830;2023-03-21T09:06:32;9.30;99.80
14733;DHT22;7457;50.960;6.830;2023-03-21T09:08:58;9.30;99.80
14733;DHT22;7457;50.960;6.830;2023-03-21T09:11:24;9.20;99.80
14733;DHT22;7457;50.960;6.830;2023-03-21T09:13:50;9.20;99.90
14733;DHT22;7457;50.960;6.830;2023-03-21T09:16:15;9.30;100.00
14733;DHT22;7457;50.960;6.830;2023-03-21T09:18:41;9.30;100.00
14733;DHT22;7457;50.960;6.830;2023-03-21T09:21:10;9.40;100.00
14733;DHT22;7457;50.960;6.830;2023-03-21T09:23:38;9.40;100.00
14733;DHT22;7457;50.960;6.830;2023-03-21T09:26:04;9.50;100.00
14733;DHT22;7457;50.960;6.830;2023-03-21T09:28:31;9.60;100.00
14733;DHT22;7457;50.960;6.830;2023-03-21T09:30:58;9.70;100.00
14733;DHT22;7457;50.960;6.830;2023-03-21T09:33:25;9.70;99.70
14733;DHT22;7457;50.960;6.830;2023-03-21T09:35:53;9.70;99.50
14733;DHT22;7457;50.960;6.830;2023-03-21T09:38:19;9.80;99.00
14733;DHT22;7457;50.960;6.830;2023-03-21T09:47:19;9.70;98.50
14733;DHT22;7457;50.960;6.830;2023-03-21T09:49:21;9.70;98.60
14733;DHT22;7457;50.960;6.830;2023-03-21T09:51:51;9.70;98.90
14733;DHT22;7457;50.960;6.830;2023-03-21T09:54:25;9.80;98.80
14733;DHT22;7457;50.960;6.830;2023-03-21T09:56:54;9.70;98.80
14733;DHT22;7457;50.960;6.830;2023-03-21T09:59:26;9.70;98.50
14733;DHT22;7457;50.960;6.830;2023-03-21T10:01:53;9.70;98.50
14733;DHT22;7457;50.960;6.830;2023-03-21T10:04:19;9.70;98.60
14733;DHT22;7457;50.960;6.830;2023-03-21T10:06:59;9.70;98.80
14733;DHT22;7457;50.960;6.830;2023-03-21T10:09:27;9.70;98.90
14733;DHT22;7457;50.960;6.830;2023-03-21T10:11:54;9.70;98.80
14733;DHT22;7457;50.960;6.830;2023-03-21T10:14:34;9.70;98.90
14733;DHT22;7457;50.960;6.830;2023-03-21T10:17:17;9.70;98.80
14733;DHT22;7457;50.960;6.830;2023-03-21T10:19:48;9.60;98.80
14733;DHT22;7457;50.960;6.830;2023-03-21T10:22:19;9.70;98.90
14733;DHT22;7457;50.960;6.830;2023-03-21T10:24:45;9.70;98.60
14733;DHT22;7457;50.960;6.830;2023-03-21T10:27:11;9.70;98.30
14733;DHT22;7457;50.960;6.830;2023-03-21T10:29:44;9.70;98.40
14733;DHT22;7457;50.960;6.830;2023-03-21T10:32:16;9.80;98.00
14733;DHT22;7457;50.960;6.830;2023-03-21T10:34:45;9.90;98.20
14733;DHT22;7457;50.960;6.830;2023-03-21T10:37:13;9.90;97.70
14733;DHT22;7457;50.960;6.830;2023-03-21T10:39:42;9.90;97.40
14733;DHT22;7457;50.960;6.830;2023-03-21T10:42:22;9.90;97.40
14733;DHT22;7457;50.960;6.830;2023-03-21T10:44:54;10.00;97.40
14733;DHT22;7457;50.960;6.830;2023-03-21T10:47:25;10.10;97.60
14733;DHT22;7457;50.960;6.830;2023-03-21T10:49:51;10.20;97.10
14733;DHT22;7457;50.960;6.830;2023-03-21T10:52:20;10.30;96.80
14733;DHT22;7457;50.960;6.830;2023-03-21T10:54:46;10.40;96.10
14733;DHT22;7457;50.960;6.830;2023-03-21T10:57:19;10.50;95.30
14733;DHT22;7457;50.960;6.830;2023-03-21T10:59:53;10.50;94.30
14733;DHT22;7457;50.960;6.830;2023-03-21T11:02:25;10.40;93.90
14733;DHT22;7457;50.960;6.830;2023-03-21T11:04:53;10.40;94.00
14733;DHT22;7457;50.960;6.830;2023-03-21T11:07:20;10.40;93.70
14733;DHT22;7457;50.960;6.830;2023-03-21T11:09:59;10.40;93.80
14733;DHT22;7457;50.960;6.830;2023-03-21T11:12:46;10.40;94.10
14733;DHT22;7457;50.960;6.830;2023-03-21T11:17:52;10.60;93.70
14733;DHT22;7457;50.960;6.830;2023-03-21T11:20:19;10.60;93.50
14733;DHT22;7457;50.960;6.830;2023-03-21T11:22:45;10.60;93.10
14733;DHT22;7457;50.960;6.830;2023-03-21T11:25:36;10.60;93.00
14733;DHT22;7457;50.960;6.830;2023-03-21T11:28:12;10.60;92.90
14733;DHT22;7457;50.960;6.830;2023-03-21T11:30:57;10.60;92.90
14733;DHT22;7457;50.960;6.830;2023-03-21T11:33:32;10.60;92.50
14733;DHT22;7457;50.960;6.830;2023-03-21T11:36:04;10.60;92.30
14733;DHT22;7457;50.960;6.830;2023-03-21T11:38:39;10.60;92.30
14733;DHT22;7457;50.960;6.830;2023-03-21T11:41:06;10.50;92.40
14733;DHT22;7457;50.960;6.830;2023-03-21T11:43:36;10.50;92.50
14733;DHT22;7457;50.960;6.830;2023-03-21T11:46:11;10.40;92.70
14733;DHT22;7457;50.960;6.830;2023-03-21T11:48:46;10.40;92.80
14733;DHT22;7457;50.960;6.830;2023-03-21T11:51:24;10.30;92.80
14733;DHT22;7457;50.960;6.830;2023-03-21T11:56:55;10.20;93.40
14733;DHT22;7457;50.960;6.830;2023-03-21T11:59:41;10.20;93.80
14733;DHT22;7457;50.960;6.830;2023-03-21T12:05:18;10.00;94.40
14733;DHT22;7457;50.960;6.830;2023-03-21T12:10:50;9.90;95.10
14733;DHT22;7457;50.960;6.830;2023-03-21T12:21:19;9.80;97.00
14733;DHT22;7457;50.960;6.830;2023-03-21T12:32:32;9.80;97.50
14733;DHT22;7457;50.960;6.830;2023-03-21T12:35:45;9.90;98.00
14733;DHT22;7457;50.960;6.830;2023-03-21T12:41:23;10.10;98.40
14733;DHT22;7457;50.960;6.830;2023-03-21T12:49:28;10.40;97.10
14733;DHT22;7457;50.960;6.830;2023-03-21T12:52:00;10.50;97.10
14733;DHT22;7457;50.960;6.830;2023-03-21T12:57:09;10.80;95.90
14733;DHT22;7457;50.960;6.830;2023-03-21T13:02:30;10.90;94.50
14733;DHT22;7457;50.960;6.830;2023-03-21T13:07:26;10.90;93.80
14733;DHT22;7457;50.960;6.830;2023-03-21T13:09:53;10.90;94.10
14733;DHT22;7457;50.960;6.830;2023-03-21T13:12:47;11.00;93.70
14733;DHT22;7457;50.960;6.830;2023-03-21T13:18:28;11.00;92.90
14733;DHT22;7457;50.960;6.830;2023-03-21T13:21:22;11.00;92.90
14733;DHT22;7457;50.960;6.830;2023-03-21T13:24:02;11.10;92.90
14733;DHT22;7457;50.960;6.830;2023-03-21T13:26:35;11.10;92.20
14733;DHT22;7457;50.960;6.830;2023-03-21T13:29:11;11.20;91.80
14733;DHT22;7457;50.960;6.830;2023-03-21T13:31:44;11.20;91.60
14733;DHT22;7457;50.960;6.830;2023-03-21T13:34:12;11.20;91.90
14733;DHT22;7457;50.960;6.830;2023-03-21T13:36:39;11.30;91.80
14733;DHT22;7457;50.960;6.830;2023-03-21T13:39:17;11.30;91.60
14733;DHT22;7457;50.960;6.830;2023-03-21T13:41:44;11.40;91.60
14733;DHT22;7457;50.960;6.830;2023-03-21T13:44:40;11.50;92.10
14733;DHT22;7457;50.960;6.830;2023-03-21T13:55:38;11.70;90.30
14733;DHT22;7457;50.960;6.830;2023-03-21T14:07:04;11.60;89.90
14733;DHT22;7457;50.960;6.830;2023-03-21T14:09:43;11.60;90.10
14733;DHT22;7457;50.960;6.830;2023-03-21T14:12:15;11.70;90.40
14733;DHT22;7457;50.960;6.830;2023-03-21T14:14:52;11.70;89.90
14733;DHT22;7457;50.960;6.830;2023-03-21T14:17:27;11.70;89.70
14733;DHT22;7457;50.960;6.830;2023-03-21T14:19:56;11.70;89.40
14733;DHT22;7457;50.960;6.830;2023-03-21T14:22:22;11.70;89.20
14733;DHT22;7457;50.960;6.830;2023-03-21T14:24:54;11.70;89.30
14733;DHT22;7457;50.960;6.830;2023-03-21T14:27:21;11.70;89.00
14733;DHT22;7457;50.960;6.830;2023-03-21T14:29:48;11.70;89.00
14733;DHT22;7457;50.960;6.830;2023-03-21T14:32:23;11.80;89.00
14733;DHT22;7457;50.960;6.830;2023-03-21T14:34:49;11.80;89.00
14733;DHT22;7457;50.960;6.830;2023-03-21T14:37:30;11.80;89.20
14733;DHT22;7457;50.960;6.830;2023-03-21T14:40:01;11.90;89.10
14733;DHT22;7457;50.960;6.830;2023-03-21T14:42:34;11.90;88.00
14733;DHT22;7457;50.960;6.830;2023-03-21T14:47:41;11.90;87.70
14733;DHT22;7457;50.960;6.830;2023-03-21T14:50:09;11.90;87.60
14733;DHT22;7457;50.960;6.830;2023-03-21T14:52:35;12.00;87.80
14733;DHT22;7457;50.960;6.830;2023-03-21T14:55:13;12.00;87.90
14733;DHT22;7457;50.960;6.830;2023-03-21T14:57:39;12.10;87.90
14733;DHT22;7457;50.960;6.830;2023-03-21T15:00:07;12.10;87.30
14733;DHT22;7457;50.960;6.830;2023-03-21T15:02:41;12.20;87.30
14733;DHT22;7457;50.960;6.830;2023-03-21T15:07:56;12.40;87.10
14733;DHT22;7457;50.960;6.830;2023-03-21T15:10:23;12.40;86.30
14733;DHT22;7457;50.960;6.830;2023-03-21T15:12:55;12.50;86.00
14733;DHT22;7457;50.960;6.830;2023-03-21T15:15:23;12.50;85.70
14733;DHT22;7457;50.960;6.830;2023-03-21T15:17:50;12.50;85.60
14733;DHT22;7457;50.960;6.830;2023-03-21T15:20:23;12.50;86.00
14733;DHT22;7457;50.960;6.830;2023-03-21T15:22:54;12.60;85.50
14733;DHT22;7457;50.960;6.830;2023-03-21T15:25:25;12.60;85.80
14733;DHT22;7457;50.960;6.830;2023-03-21T15:27:53;12.70;85.00
14733;DHT22;7457;50.960;6.830;2023-03-21T15:30:23;12.70;85.10
14733;DHT22;7457;50.960;6.830;2023-03-21T15:32:49;12.70;85.20
14733;DHT22;7457;50.960;6.830;2023-03-21T15:35:20;12.70;84.80
14733;DHT22;7457;50.960;6.830;2023-03-21T15:37:55;12.70;85.00
14733;DHT22;7457;50.960;6.830;2023-03-21T15:40:32;12.60;85.10
14733;DHT22;7457;50.960;6.830;2023-03-21T15:43:18;12.60;85.10
14733;DHT22;7457;50.960;6.830;2023-03-21T15:45:52;12.70;84.90
14733;DHT22;7457;50.960;6.830;2023-03-21T15:48:25;12.70;85.30
14733;DHT22;7457;50.960;6.830;2023-03-21T15:50:58;12.70;85.30
14733;DHT22;7457;50.960;6.830;2023-03-21T15:53:26;12.80;85.30
14733;DHT22;7457;50.960;6.830;2023-03-21T15:55:58;12.90;85.10
14733;DHT22;7457;50.960;6.830;2023-03-21T15:58:47;12.90;84.20
14733;DHT22;7457;50.960;6.830;2023-03-21T16:01:20;12.90;84.10
14733;DHT22;7457;50.960;6.830;2023-03-21T16:04:01;12.90;84.00
14733;DHT22;7457;50.960;6.830;2023-03-21T16:06:33;12.90;84.10
14733;DHT22;7457;50.960;6.830;2023-03-21T16:09:03;12.90;84.00
14733;DHT22;7457;50.960;6.830;2023-03-21T16:11:46;12.90;84.00
14733;DHT22;7457;50.960;6.830;2023-03-21T16:14:12;12.90;84.10
14733;DHT22;7457;50.960;6.830;2023-03-21T16:16:38;12.90;84.50
14733;DHT22;7457;50.960;6.830;2023-03-21T16:19:04;13.00;84.10
14733;DHT22;7457;50.960;6.830;2023-03-21T16:21:32;13.00;84.10
14733;DHT22;7457;50.960;6.830;2023-03-21T16:23:59;13.00;83.90
14733;DHT22;7457;50.960;6.830;2023-03-21T16:26:27;13.00;83.60
14733;DHT22;7457;50.960;6.830;2023-03-21T16:28:53;13.10;82.80
14733;DHT22;7457;50.960;6.830;2023-03-21T16:31:23;13.10;82.50
14733;DHT22;7457;50.960;6.830;2023-03-21T16:33:49;13.10;82.00
14733;DHT22;7457;50.960;6.830;2023-03-21T16:38:47;13.30;80.30
14733;DHT22;7457;50.960;6.830;2023-03-21T16:41:17;13.30;79.50
14733;DHT22;7457;50.960;6.830;2023-03-21T16:43:43;13.40;79.10
14733;DHT22;7457;50.960;6.830;2023-03-21T16:46:15;13.40;78.10
14733;DHT22;7457;50.960;6.830;2023-03-21T16:48:42;13.50;76.80
14733;DHT22;7457;50.960;6.830;2023-03-21T16:51:12;13.50;75.80
14733;DHT22;7457;50.960;6.830;2023-03-21T16:53:38;13.50;75.10
14733;DHT22;7457;50.960;6.830;2023-03-21T16:56:04;13.50;74.30
14733;DHT22;7457;50.960;6.830;2023-03-21T16:58:31;13.50;74.20
14733;DHT22;7457;50.960;6.830;2023-03-21T17:00:56;13.60;73.60
14733;DHT22;7457;50.960;6.830;2023-03-21T17:03:22;13.50;73.60
14733;DHT22;7457;50.960;6.830;2023-03-21T17:05:48;13.50;73.50
14733;DHT22;7457;50.960;6.830;2023-03-21T17:08:16;13.50;73.20
14733;DHT22;7457;50.960;6.830;2023-03-21T17:10:42;13.50;73.20
14733;DHT22;7457;50.960;6.830;2023-03-21T17:13:08;13.50;73.10
14733;DHT22;7457;50.960;6.830;2023-03-21T17:15:34;13.40;73.20
14733;DHT22;7457;50.960;6.830;2023-03-21T17:17:59;13.40;72.80
14733;DHT22;7457;50.960;6.830;2023-03-21T17:20:29;13.40;72.80
14733;DHT22;7457;50.960;6.830;2023-03-21T17:22:56;13.40;72.90
14733;DHT22;7457;50.960;6.830;2023-03-21T17:25:22;13.40;72.90
14733;DHT22;7457;50.960;6.830;2023-03-21T17:27:48;13.30;72.80
14733;DHT22;7457;50.960;6.830;2023-03-21T17:30:27;13.30;72.90
14733;DHT22;7457;50.960;6.830;2023-03-21T17:32:54;13.30;73.00
14733;DHT22;7457;50.960;6.830;2023-03-21T17:35:21;13.30;73.20
14733;DHT22;7457;50.960;6.830;2023-03-21T17:37:47;13.30;73.10
14733;DHT22;7457;50.960;6.830;2023-03-21T17:40:27;13.20;72.90
14733;DHT22;7457;50.960;6.830;2023-03-21T17:42:54;13.20;72.50
14733;DHT22;7457;50.960;6.830;2023-03-21T17:45:20;13.20;72.30
14733;DHT22;7457;50.960;6.830;2023-03-21T17:47:47;13.20;72.10
14733;DHT22;7457;50.960;6.830;2023-03-21T17:50:19;13.10;71.50
14733;DHT22;7457;50.960;6.830;2023-03-21T17:52:45;13.10;70.60
14733;DHT22;7457;50.960;6.830;2023-03-21T17:55:11;13.20;70.90
14733;DHT22;7457;50.960;6.830;2023-03-21T17:57:37;13.20;70.70
14733;DHT22;7457;50.960;6.830;2023-03-21T18:00:05;13.10;70.70
14733;DHT22;7457;50.960;6.830;2023-03-21T18:02:37;13.10;70.80
14733;DHT22;7457;50.960;6.830;2023-03-21T18:05:02;13.10;70.90